createdAt,value
2016-07-11T00:00:11.393Z,96.94
2016-07-11T00:01:11.385Z,96.17
2016-07-11T00:02:11.407Z,96.56
2016-07-11T00:03:11.386Z,96.75
2016-07-11T00:04:11.371Z,97.04
2016-07-11T00:05:11.394Z,96.56
2016-07-11T00:06:11.392Z,97.04
2016-07-11T00:07:11.388Z,96.17
2016-07-11T00:08:11.447Z,96.66
2016-07-11T00:09:11.386Z,96.66
2016-07-11T00:10:11.394Z,96.46
2016-07-11T00:11:11.406Z,96.27
2016-07-11T00:12:11.393Z,96.94
2016-07-11T00:13:11.395Z,97.04
2016-07-11T00:14:11.475Z,96.37
2016-07-11T00:15:11.459Z,96.46
2016-07-11T00:16:11.406Z,96.46
2016-07-11T00:17:11.400Z,96.56
2016-07-11T00:18:11.418Z,96.08
2016-07-11T00:19:12.425Z,95.4
2016-07-11T00:20:11.435Z,95.98
2016-07-11T00:21:11.414Z,95.98
2016-07-11T00:22:11.436Z,95.12
2016-07-11T00:23:11.417Z,95.12
2016-07-11T00:24:11.405Z,95.31
2016-07-11T00:25:11.443Z,95.02
2016-07-11T00:26:11.430Z,95.12
2016-07-11T00:27:11.422Z,94.73
2016-07-11T00:28:11.430Z,94.92
2016-07-11T00:29:11.436Z,95.02
2016-07-11T00:30:11.992Z,94.82
2016-07-11T00:31:11.424Z,94.34
2016-07-11T00:32:11.483Z,94.39
2016-07-11T00:33:12.032Z,93.77
2016-07-11T00:34:11.479Z,94.1
2016-07-11T00:35:11.430Z,94.34
2016-07-11T00:36:11.449Z,94.92
2016-07-11T00:37:11.450Z,94.54
2016-07-11T00:38:11.423Z,94.82
2016-07-11T00:39:11.426Z,94.44
2016-07-11T00:40:11.424Z,94.54
2016-07-11T00:41:11.438Z,94.82
2016-07-11T00:42:11.422Z,94.73
2016-07-11T00:43:11.451Z,94.73
2016-07-11T00:44:11.456Z,94.92
2016-07-11T00:45:11.420Z,95.21
2016-07-11T00:46:11.424Z,94.73
2016-07-11T00:47:11.431Z,95.12
2016-07-11T00:48:11.438Z,95.6
2016-07-11T00:49:11.446Z,94.82
2016-07-11T00:50:11.455Z,94.25
2016-07-11T00:51:11.510Z,94.06
2016-07-11T00:52:11.451Z,94.06
2016-07-11T00:53:11.417Z,94.06
2016-07-11T00:54:11.421Z,93.87
2016-07-11T00:55:11.437Z,93.67
2016-07-11T00:56:11.434Z,93.81
2016-07-11T00:57:11.446Z,93.48
2016-07-11T00:58:11.445Z,93.72
2016-07-11T00:59:11.453Z,93.33
2016-07-11T01:00:11.458Z,93.38
2016-07-11T01:01:11.420Z,93.48
2016-07-11T01:02:11.421Z,93.96
2016-07-11T01:03:11.450Z,93.29
2016-07-11T01:04:11.455Z,93.48
2016-07-11T01:05:11.430Z,93.87
2016-07-11T01:06:11.450Z,93.77
2016-07-11T01:07:11.439Z,93.87
2016-07-11T01:08:11.456Z,93.67
2016-07-11T01:09:11.482Z,93.38
2016-07-11T01:10:11.452Z,93.48
2016-07-11T01:11:11.450Z,94.34
2016-07-11T01:12:11.436Z,94.25
2016-07-11T01:13:11.492Z,93.57
2016-07-11T01:14:11.488Z,93.87
2016-07-11T01:15:11.457Z,94.06
2016-07-11T01:16:11.480Z,93.96
2016-07-11T01:17:11.480Z,94.25
2016-07-11T01:18:11.474Z,94.64
2016-07-11T01:19:11.504Z,94.64
2016-07-11T01:20:11.459Z,94.68
2016-07-11T01:21:11.481Z,94.87
2016-07-11T01:22:11.482Z,95.17
2016-07-11T01:23:11.472Z,94.87
2016-07-11T01:24:11.518Z,94.49
2016-07-11T01:25:11.488Z,95.07
2016-07-11T01:26:11.468Z,94.68
2016-07-11T01:27:11.444Z,94.97
2016-07-11T01:28:11.486Z,94.87
2016-07-11T01:29:11.460Z,95.17
2016-07-11T01:30:11.467Z,95.26
2016-07-11T01:31:11.472Z,94.68
2016-07-11T01:32:11.462Z,95.45
2016-07-11T01:33:11.470Z,95.55
2016-07-11T01:34:11.484Z,95.26
2016-07-11T01:35:11.470Z,95.84
2016-07-11T01:36:11.484Z,95.65
2016-07-11T01:37:11.473Z,95.74
2016-07-11T01:38:11.469Z,96.03
2016-07-11T01:39:11.453Z,96.32
2016-07-11T01:40:11.491Z,96.42
2016-07-11T01:41:11.472Z,96.22
2016-07-11T01:42:11.481Z,96.42
2016-07-11T01:43:11.488Z,96.32
2016-07-11T01:44:11.501Z,95.79
2016-07-11T01:45:11.498Z,96.37
2016-07-11T01:46:11.498Z,96.27
2016-07-11T01:47:11.472Z,96.75
2016-07-11T01:48:11.488Z,97.33
2016-07-11T01:49:11.486Z,97.42
2016-07-11T01:50:11.500Z,96.94
2016-07-11T01:51:11.485Z,96.85
2016-07-11T01:52:11.463Z,97.04
2016-07-11T01:53:11.516Z,97.91
2016-07-11T01:54:11.522Z,97.62
2016-07-11T01:55:11.505Z,97.62
2016-07-11T01:56:11.508Z,97.52
2016-07-11T01:57:11.482Z,97.91
2016-07-11T01:58:11.498Z,97.62
2016-07-11T01:59:11.516Z,98.19
2016-07-11T02:00:11.507Z,98.19
2016-07-11T02:01:11.502Z,98.29
2016-07-11T02:02:11.515Z,98.34
2016-07-11T02:03:11.497Z,98.63
2016-07-11T02:04:11.494Z,98.91
2016-07-11T02:05:11.514Z,98.63
2016-07-11T02:06:11.499Z,98.29
2016-07-11T02:07:11.521Z,98.72
2016-07-11T02:08:11.511Z,99.11
2016-07-11T02:09:11.516Z,99.11
2016-07-11T02:10:11.495Z,99.11
2016-07-11T02:11:11.490Z,99.06
2016-07-11T02:12:11.476Z,99.06
2016-07-11T02:13:11.510Z,99.54
2016-07-11T02:14:11.515Z,99.73
2016-07-11T02:15:11.492Z,99.54
2016-07-11T02:16:11.517Z,99.4
2016-07-11T02:17:11.514Z,98.91
2016-07-11T02:18:11.543Z,99.06
2016-07-11T02:19:11.514Z,99.73
2016-07-11T02:20:11.521Z,99.16
2016-07-11T02:21:11.499Z,98.77
2016-07-11T02:22:11.527Z,98.77
2016-07-11T02:23:11.501Z,99.06
2016-07-11T02:24:11.517Z,98.96
2016-07-11T02:25:11.547Z,99.16
2016-07-11T02:26:11.522Z,99.16
2016-07-11T02:27:11.518Z,99.06
2016-07-11T02:28:11.547Z,98.87
2016-07-11T02:29:11.549Z,99.73
2016-07-11T02:30:11.520Z,99.83
2016-07-11T02:31:11.563Z,99.44
2016-07-11T02:32:11.550Z,99.83
2016-07-11T02:33:11.533Z,99.26
2016-07-11T02:34:11.522Z,99.26
2016-07-11T02:35:11.594Z,98.87
2016-07-11T02:36:11.555Z,99.44
2016-07-11T02:37:11.544Z,99.26
2016-07-11T02:38:11.539Z,99.64
2016-07-11T02:39:11.549Z,99.35
2016-07-11T02:40:11.544Z,99.64
2016-07-11T02:41:11.577Z,99.83
2016-07-11T02:42:11.566Z,99.83
2016-07-11T02:43:11.546Z,99.59
2016-07-11T02:44:11.538Z,99.99
2016-07-11T02:45:11.547Z,99.99
2016-07-11T02:46:11.548Z,99.99
2016-07-11T02:47:11.530Z,99.99
2016-07-11T02:48:11.537Z,99.99
2016-07-11T02:49:11.547Z,99.99
2016-07-11T02:50:11.543Z,99.99
2016-07-11T02:51:11.547Z,99.99
2016-07-11T02:52:11.546Z,99.99
2016-07-11T02:53:11.528Z,99.99
2016-07-11T02:54:11.552Z,99.99
2016-07-11T02:55:11.554Z,99.99
2016-07-11T02:56:11.572Z,99.99
2016-07-11T02:57:11.584Z,99.99
2016-07-11T02:58:11.547Z,99.99
2016-07-11T02:59:11.551Z,99.99
2016-07-11T03:00:11.538Z,99.99
2016-07-11T03:01:11.577Z,99.99
2016-07-11T03:02:11.583Z,99.99
2016-07-11T03:03:11.551Z,99.99
2016-07-11T03:04:11.554Z,99.99
2016-07-11T03:05:11.578Z,99.99
2016-07-11T03:06:11.569Z,99.99
2016-07-11T03:07:11.579Z,99.99
2016-07-11T03:08:11.570Z,99.99
2016-07-11T03:09:11.558Z,99.99
2016-07-11T03:10:11.565Z,99.99
2016-07-11T03:11:11.560Z,99.99
2016-07-11T03:12:11.566Z,99.99
2016-07-11T03:13:11.555Z,99.99
2016-07-11T03:14:11.580Z,99.99
2016-07-11T03:15:11.576Z,99.99
2016-07-11T03:16:11.611Z,99.99
2016-07-11T03:17:11.573Z,99.99
2016-07-11T03:18:11.558Z,99.99
2016-07-11T03:19:11.569Z,99.99
2016-07-11T03:20:11.607Z,99.99
2016-07-11T03:21:11.624Z,99.99
2016-07-11T03:22:11.617Z,99.99
2016-07-11T03:23:11.580Z,99.99
2016-07-11T03:24:11.608Z,99.99
2016-07-11T03:25:11.577Z,99.99
2016-07-11T03:26:11.579Z,99.99
2016-07-11T03:27:11.588Z,99.99
2016-07-11T03:28:11.610Z,99.99
2016-07-11T03:29:11.610Z,99.99
2016-07-11T03:30:11.577Z,99.99
2016-07-11T03:31:11.579Z,99.99
2016-07-11T03:32:11.579Z,99.99
2016-07-11T03:33:11.583Z,99.99
2016-07-11T03:34:11.591Z,99.99
2016-07-11T03:35:11.595Z,99.99
2016-07-11T03:36:11.584Z,99.99
2016-07-11T03:37:11.595Z,99.99
2016-07-11T03:38:11.580Z,99.99
2016-07-11T03:39:11.597Z,99.99
2016-07-11T03:40:11.621Z,99.99
2016-07-11T03:41:11.598Z,99.99
2016-07-11T03:42:11.615Z,99.99
2016-07-11T03:43:11.610Z,99.99
2016-07-11T03:44:11.630Z,99.99
2016-07-11T03:45:11.617Z,99.99
2016-07-11T03:46:11.671Z,99.99
2016-07-11T03:47:11.611Z,99.99
2016-07-11T03:48:11.637Z,99.99
2016-07-11T03:49:11.611Z,99.99
2016-07-11T03:50:11.621Z,99.99
2016-07-11T03:51:11.624Z,99.99
2016-07-11T03:52:11.617Z,99.99
2016-07-11T03:53:11.609Z,99.99
2016-07-11T03:54:11.604Z,99.99
2016-07-11T03:55:11.641Z,99.99
2016-07-11T03:56:11.614Z,99.99
2016-07-11T03:57:11.597Z,99.99
2016-07-11T03:58:11.611Z,99.99
2016-07-11T03:59:11.619Z,99.99
2016-07-11T04:00:11.591Z,99.99
2016-07-11T04:01:11.639Z,99.99
2016-07-11T04:02:11.615Z,99.99
2016-07-11T04:03:11.608Z,99.99
2016-07-11T04:04:11.707Z,99.99
2016-07-11T04:05:11.643Z,99.99
2016-07-11T04:06:11.676Z,99.99
2016-07-11T04:07:11.641Z,99.99
2016-07-11T04:08:11.646Z,99.99
2016-07-11T04:09:11.644Z,99.99
2016-07-11T04:10:11.645Z,99.64
2016-07-11T04:11:11.620Z,99.93
2016-07-11T04:12:11.627Z,99.26
2016-07-11T04:13:11.633Z,99.44
2016-07-11T04:14:11.611Z,99.73
2016-07-11T04:15:11.617Z,99.73
2016-07-11T04:16:11.664Z,99.44
2016-07-11T04:17:11.621Z,99.73
2016-07-11T04:18:11.656Z,99.73
2016-07-11T04:19:11.669Z,99.44
2016-07-11T04:20:11.643Z,99.73
2016-07-11T04:21:11.670Z,99.16
2016-07-11T04:22:11.643Z,99.54
2016-07-11T04:23:11.612Z,99.06
2016-07-11T04:24:11.642Z,99.06
2016-07-11T04:25:11.641Z,99.59
2016-07-11T04:26:11.685Z,99.83
2016-07-11T04:27:11.668Z,99.16
2016-07-11T04:28:11.653Z,99.16
2016-07-11T04:29:11.676Z,98.96
2016-07-11T04:30:11.657Z,99.16
2016-07-11T04:31:11.665Z,98.96
2016-07-11T04:32:11.646Z,99.16
2016-07-11T04:33:11.660Z,99.06
2016-07-11T04:34:11.624Z,98.19
2016-07-11T04:35:11.673Z,98.72
2016-07-11T04:36:11.644Z,98.14
2016-07-11T04:37:11.727Z,98.39
2016-07-11T04:38:11.651Z,97.96
2016-07-11T04:39:11.645Z,97.81
2016-07-11T04:40:11.641Z,97.96
2016-07-11T04:41:11.646Z,98.05
2016-07-11T04:42:11.646Z,97.67
2016-07-11T04:43:11.655Z,96.8
2016-07-11T04:44:11.644Z,97.47
2016-07-11T04:45:11.704Z,96.89
2016-07-11T04:46:11.694Z,96.7
2016-07-11T04:47:11.644Z,96.42
2016-07-11T04:48:11.635Z,97.09
2016-07-11T04:49:11.638Z,96.32
2016-07-11T04:50:11.651Z,96.03
2016-07-11T04:51:11.643Z,96.12
2016-07-11T04:52:11.686Z,96.22
2016-07-11T04:53:11.675Z,96.22
2016-07-11T04:54:11.642Z,95.84
2016-07-11T04:55:11.645Z,95.65
2016-07-11T04:56:11.647Z,95.65
2016-07-11T04:57:11.660Z,94.97
2016-07-11T04:58:11.673Z,94.4
2016-07-11T04:59:11.647Z,94.2
2016-07-11T05:00:11.654Z,93.62
2016-07-11T05:01:11.675Z,94.01
2016-07-11T05:02:11.667Z,94.01
2016-07-11T05:03:11.677Z,93.82
2016-07-11T05:04:11.682Z,94.01
2016-07-11T05:05:11.675Z,93.48
2016-07-11T05:06:11.678Z,93.24
2016-07-11T05:07:11.671Z,93
2016-07-11T05:08:11.977Z,92.76
2016-07-11T05:09:11.728Z,93.09
2016-07-11T05:10:11.734Z,92.9
2016-07-11T05:11:11.683Z,92.57
2016-07-11T05:12:11.847Z,92.32
2016-07-11T05:13:11.685Z,92.61
2016-07-11T05:14:11.719Z,91.46
2016-07-11T05:15:11.712Z,91.36
2016-07-11T05:16:11.687Z,90.97
2016-07-11T05:17:11.693Z,90.97
2016-07-11T05:18:11.682Z,90.59
2016-07-11T05:19:12.450Z,90.11
2016-07-11T05:20:11.699Z,90.69
2016-07-11T05:21:11.736Z,90.97
2016-07-11T05:22:11.682Z,90.5
2016-07-11T05:23:11.770Z,91.17
2016-07-11T05:24:11.704Z,91.36
2016-07-11T05:25:11.681Z,90.3
2016-07-11T05:26:11.716Z,90.5
2016-07-11T05:27:11.688Z,90.69
2016-07-11T05:28:11.711Z,90.3
2016-07-11T05:29:11.706Z,90.3
2016-07-11T05:30:11.724Z,90.5
2016-07-11T05:31:11.736Z,90.4
2016-07-11T05:32:11.694Z,89.92
2016-07-11T05:33:11.761Z,89.63
2016-07-11T05:34:11.717Z,90.59
2016-07-11T05:35:11.712Z,89.63
2016-07-11T05:36:11.692Z,89.24
2016-07-11T05:37:11.725Z,89.43
2016-07-11T05:38:11.719Z,88.47
2016-07-11T05:39:11.716Z,88.67
2016-07-11T05:40:11.702Z,87.99
2016-07-11T05:41:11.709Z,87.22
2016-07-11T05:42:11.694Z,87.07
2016-07-11T05:43:11.767Z,87.17
2016-07-11T05:44:11.740Z,86.49
2016-07-11T05:45:11.717Z,87.36
2016-07-11T05:46:11.759Z,87.26
2016-07-11T05:47:11.706Z,87.94
2016-07-11T05:48:11.727Z,87.07
2016-07-11T05:49:11.781Z,86.21
2016-07-11T05:50:11.745Z,86.45
2016-07-11T05:51:11.736Z,83.8
2016-07-11T05:52:11.770Z,82.6
2016-07-11T05:53:11.749Z,82.16
2016-07-11T05:54:11.735Z,80.52
2016-07-11T05:55:11.772Z,78.85
2016-07-11T05:56:11.729Z,78.75
2016-07-11T05:57:11.709Z,77.53
2016-07-11T05:58:11.713Z,78.5
2016-07-11T05:59:11.722Z,77.98
2016-07-11T06:00:11.726Z,78.02
2016-07-11T06:01:11.768Z,76.67
2016-07-11T06:02:11.792Z,76.63
2016-07-11T06:03:11.754Z,74.93
2016-07-11T06:04:11.744Z,75.23
2016-07-11T06:05:11.755Z,76.67
2016-07-11T06:06:11.715Z,75.51
2016-07-11T06:07:11.889Z,75.42
2016-07-11T06:08:11.732Z,74.16
2016-07-11T06:09:11.737Z,73.1
2016-07-11T06:10:11.743Z,73.3
2016-07-11T06:11:11.753Z,73.68
2016-07-11T06:12:11.797Z,73.78
2016-07-11T06:13:11.751Z,74.07
2016-07-11T06:14:11.750Z,73.33
2016-07-11T06:15:11.756Z,72.72
2016-07-11T06:16:11.814Z,72.81
2016-07-11T06:17:11.812Z,73.24
2016-07-11T06:18:11.785Z,71.98
2016-07-11T06:19:11.767Z,74.58
2016-07-11T06:20:11.777Z,72.37
2016-07-11T06:21:11.743Z,72.72
2016-07-11T06:22:11.748Z,72.47
2016-07-11T06:23:11.738Z,72.47
2016-07-11T06:24:11.740Z,72.56
2016-07-11T06:25:11.766Z,72.18
2016-07-11T06:26:11.739Z,72.37
2016-07-11T06:27:11.744Z,72.66
2016-07-11T06:28:12.241Z,73.14
2016-07-11T06:29:11.737Z,72.75
2016-07-11T06:30:11.741Z,72.27
2016-07-11T06:31:11.745Z,73.53
2016-07-11T06:32:11.746Z,72.75
2016-07-11T06:33:11.798Z,72.99
2016-07-11T06:34:11.741Z,72.69
2016-07-11T06:35:11.741Z,72.5
2016-07-11T06:36:11.751Z,73.08
2016-07-11T06:37:11.771Z,73.08
2016-07-11T06:38:11.782Z,71.92
2016-07-11T06:39:11.763Z,71.83
2016-07-11T06:40:11.771Z,72.41
2016-07-11T06:41:11.777Z,72.12
2016-07-11T06:42:11.831Z,72.99
2016-07-11T06:43:11.922Z,71.54
2016-07-11T06:44:31.033Z,71.54
2016-07-11T06:45:27.413Z,68.55
2016-07-11T06:46:28.577Z,68.65
2016-07-11T06:47:22.421Z,69.51
2016-07-11T06:48:20.653Z,69.61
2016-07-11T06:49:20.898Z,69.61
2016-07-11T06:50:44.290Z,67.49
2016-07-11T06:51:58.918Z,66.91
2016-07-11T06:53:26.907Z,66.33
2016-07-11T06:54:47.253Z,66.04
2016-07-11T06:55:57.711Z,66.62
2016-07-11T06:57:20.993Z,67.1
2016-07-11T06:58:38.606Z,66.91
2016-07-11T06:59:50.324Z,66.36
2016-07-11T07:03:27.997Z,65.69
2016-07-11T07:04:36.337Z,66.56
2016-07-11T07:05:23.062Z,65.91
2016-07-11T07:06:33.158Z,65.88
2016-07-11T07:07:25.758Z,66.3
2016-07-11T07:08:39.341Z,66.11
2016-07-11T07:09:33.119Z,66.2
2016-07-11T07:10:23.069Z,65.91
2016-07-11T07:11:23.104Z,66.59
2016-07-11T07:12:23.113Z,66.97
2016-07-11T07:13:23.076Z,66.97
2016-07-11T07:14:23.112Z,66.78
2016-07-11T07:15:23.093Z,66.01
2016-07-11T07:16:23.054Z,66.11
2016-07-11T07:17:23.079Z,65.53
2016-07-11T07:18:23.081Z,65.37
2016-07-11T07:19:23.072Z,64.47
2016-07-11T07:20:23.081Z,64.47
2016-07-11T07:21:23.097Z,63.79
2016-07-11T07:22:23.114Z,64.24
2016-07-11T07:23:23.103Z,64.18
2016-07-11T07:24:23.083Z,65.14
2016-07-11T07:25:23.111Z,65.34
2016-07-11T07:26:23.093Z,64.95
2016-07-11T07:27:23.096Z,65.05
2016-07-11T07:28:23.113Z,64.18
2016-07-11T07:29:23.080Z,63.89
2016-07-11T07:30:23.103Z,63.21
2016-07-11T07:31:23.102Z,63.57
2016-07-11T07:32:23.095Z,62.12
2016-07-11T07:33:23.099Z,62.41
2016-07-11T07:34:23.116Z,62.6
2016-07-11T07:35:23.101Z,62.89
2016-07-11T07:36:23.114Z,63.18
2016-07-11T07:37:23.118Z,62.54
2016-07-11T07:38:23.104Z,62.31
2016-07-11T07:39:23.114Z,61.77
2016-07-11T07:40:23.113Z,61.67
2016-07-11T07:41:23.130Z,61.77
2016-07-11T07:42:23.139Z,61.86
2016-07-11T07:43:23.145Z,62.34
2016-07-11T07:44:23.152Z,62.25
2016-07-11T07:45:23.834Z,62.54
2016-07-11T07:46:23.227Z,62.18
2016-07-11T07:47:23.226Z,61.99
2016-07-11T07:48:23.205Z,61.86
2016-07-11T07:49:23.181Z,61.02
2016-07-11T07:50:23.153Z,60.73
2016-07-11T07:51:23.160Z,60.38
2016-07-11T07:52:23.145Z,59.7
2016-07-11T07:53:23.146Z,60.96
2016-07-11T07:54:23.149Z,60.18
2016-07-11T07:55:23.123Z,60.96
2016-07-11T07:56:23.120Z,58.83
2016-07-11T07:57:23.135Z,57.63
2016-07-11T07:58:23.142Z,57.76
2016-07-11T07:59:23.138Z,56.86
2016-07-11T08:00:23.131Z,57.44
2016-07-11T08:01:23.122Z,55.92
2016-07-11T08:02:23.129Z,56.7
2016-07-11T08:03:23.134Z,56.3
2016-07-11T08:04:23.116Z,57.11
2016-07-11T08:05:23.148Z,55.76
2016-07-11T08:06:23.126Z,56.34
2016-07-11T08:07:23.139Z,56.43
2016-07-11T08:08:23.140Z,55.94
2016-07-11T08:09:23.142Z,55.85
2016-07-11T08:10:23.133Z,55.66
2016-07-11T08:11:23.140Z,55.24
2016-07-11T08:12:23.144Z,55.34
2016-07-11T08:13:23.132Z,56.4
2016-07-11T08:14:23.130Z,56.3
2016-07-11T08:15:23.137Z,55.63
2016-07-11T08:16:23.133Z,57.18
2016-07-11T08:17:23.121Z,56.76
2016-07-11T08:18:23.254Z,56.37
2016-07-11T08:19:23.136Z,56.15
2016-07-11T08:20:23.175Z,57.51
2016-07-11T08:21:23.194Z,58.31
2016-07-11T08:22:23.182Z,57.63
2016-07-11T08:23:23.179Z,57.73
2016-07-11T08:24:23.180Z,56.6
2016-07-11T08:25:23.250Z,56.5
2016-07-11T08:26:23.381Z,55.34
2016-07-11T08:27:23.415Z,55.43
2016-07-11T08:28:23.237Z,54.69
2016-07-11T08:29:23.150Z,54.98
2016-07-11T08:30:23.171Z,55.2
2016-07-11T08:31:23.201Z,54.91
2016-07-11T08:32:23.215Z,54.91
2016-07-11T08:33:23.158Z,55.3
2016-07-11T08:34:23.181Z,55.1
2016-07-11T08:35:23.190Z,54.52
2016-07-11T08:36:23.219Z,55.36
2016-07-11T08:37:23.176Z,55.98
2016-07-11T08:38:23.184Z,56.52
2016-07-11T08:39:23.235Z,56.52
2016-07-11T08:40:23.227Z,55.85
2016-07-11T08:41:23.175Z,56.14
2016-07-11T08:42:23.290Z,56.34
2016-07-11T08:43:23.188Z,57.3
2016-07-11T08:44:23.225Z,55.56
2016-07-11T08:45:23.204Z,55.56
2016-07-11T08:46:23.209Z,55.88
2016-07-11T08:47:23.197Z,56.43
2016-07-11T08:48:23.267Z,55.68
2016-07-11T08:49:23.237Z,55.4
2016-07-11T08:50:23.223Z,55
2016-07-11T08:51:23.201Z,54.45
2016-07-11T08:52:23.208Z,54.52
2016-07-11T08:53:23.290Z,54.52
2016-07-11T08:54:23.221Z,54.52
2016-07-11T08:55:23.193Z,55.3
2016-07-11T08:56:23.241Z,56.65
2016-07-11T08:57:23.349Z,55.49
2016-07-11T08:58:23.468Z,55.78
2016-07-11T08:59:23.212Z,55.58
2016-07-11T09:00:23.203Z,55.58
2016-07-11T09:01:23.193Z,55
2016-07-11T09:02:23.200Z,55.3
2016-07-11T09:03:23.238Z,55.76
2016-07-11T09:04:23.210Z,55.27
2016-07-11T09:05:23.280Z,55.76
2016-07-11T09:06:23.211Z,55.98
2016-07-11T09:07:23.277Z,55.98
2016-07-11T09:08:23.203Z,55.88
2016-07-11T09:09:23.209Z,55.88
2016-07-11T09:10:23.211Z,55.66
2016-07-11T09:11:23.217Z,56.16
2016-07-11T09:12:23.210Z,55.46
2016-07-11T09:13:23.233Z,55.92
2016-07-11T09:14:23.206Z,56.24
2016-07-11T09:15:23.230Z,57.59
2016-07-11T09:16:23.248Z,57.66
2016-07-11T09:17:23.198Z,59.08
2016-07-11T09:18:23.219Z,59.08
2016-07-11T09:19:23.193Z,58.8
2016-07-11T09:20:23.204Z,58.4
2016-07-11T09:21:23.228Z,58.4
2016-07-11T09:22:23.238Z,59.38
2016-07-11T09:23:23.259Z,60.02
2016-07-11T09:24:23.222Z,59.92
2016-07-11T09:25:23.220Z,60.02
2016-07-11T09:26:23.238Z,58.95
2016-07-11T09:27:23.224Z,59.15
2016-07-11T09:28:23.207Z,58.57
2016-07-11T09:29:23.240Z,58.7
2016-07-11T09:30:23.217Z,59.38
2016-07-11T09:31:23.221Z,58.7
2016-07-11T09:32:23.220Z,58.12
2016-07-11T09:33:23.217Z,58.8
2016-07-11T09:34:23.225Z,58.6
2016-07-11T09:35:23.232Z,58.86
2016-07-11T09:36:23.272Z,59.28
2016-07-11T09:37:23.242Z,60.14
2016-07-11T09:38:23.258Z,59.47
2016-07-11T09:39:23.248Z,58.8
2016-07-11T09:40:23.283Z,56.83
2016-07-11T09:41:23.243Z,58.31
2016-07-11T09:42:23.238Z,57.28
2016-07-11T09:43:23.288Z,57.18
2016-07-11T09:44:23.253Z,57.11
2016-07-11T09:45:23.238Z,56.34
2016-07-11T09:46:23.276Z,57.01
2016-07-11T09:47:23.246Z,57.4
2016-07-11T09:48:23.244Z,56.7
2016-07-11T09:49:23.339Z,57.56
2016-07-11T09:50:23.258Z,57.98
2016-07-11T09:51:23.245Z,57.69
2016-07-11T09:52:23.297Z,56.82
2016-07-11T09:53:23.277Z,57.33
2016-07-11T09:54:23.265Z,56.07
2016-07-11T09:55:23.260Z,55.3
2016-07-11T09:56:23.267Z,55.9
2016-07-11T09:57:23.330Z,55.98
2016-07-11T09:58:23.253Z,55.32
2016-07-11T09:59:23.261Z,54.26
2016-07-11T10:00:23.310Z,54.94
2016-07-11T10:01:23.279Z,54.35
2016-07-11T10:02:23.254Z,54.94
2016-07-11T10:03:23.262Z,54.81
2016-07-11T10:04:23.676Z,55.49
2016-07-11T10:05:23.516Z,55.98
2016-07-11T10:06:23.270Z,55.4
2016-07-11T10:07:23.281Z,56.07
2016-07-11T10:08:23.248Z,55.3
2016-07-11T10:09:23.361Z,55.36
2016-07-11T10:10:23.261Z,55.3
2016-07-11T10:11:23.271Z,55.49
2016-07-11T10:12:23.341Z,55.85
2016-07-11T10:13:23.265Z,54.79
2016-07-11T10:14:23.289Z,54.13
2016-07-11T10:15:23.262Z,54.55
2016-07-11T10:16:23.913Z,55.88
2016-07-11T10:17:24.304Z,55.68
2016-07-11T10:18:23.296Z,55.78
2016-07-11T10:19:23.585Z,55.85
2016-07-11T10:20:23.284Z,56.62
2016-07-11T10:21:23.297Z,56.82
2016-07-11T10:22:23.299Z,56.21
2016-07-11T10:23:23.352Z,56.37
2016-07-11T10:24:23.345Z,56.09
2016-07-11T10:25:23.319Z,57.92
2016-07-11T10:26:23.362Z,57.82
2016-07-11T10:27:23.530Z,58.4
2016-07-11T10:28:23.302Z,58.6
2016-07-11T10:29:23.295Z,58.7
2016-07-11T10:30:23.284Z,57.51
2016-07-11T10:31:23.306Z,58.4
2016-07-11T10:32:23.273Z,58.12
2016-07-11T10:33:23.290Z,57.82
2016-07-11T10:34:23.304Z,57.73
2016-07-11T10:35:23.289Z,58.21
2016-07-11T10:36:23.297Z,58.31
2016-07-11T10:37:23.541Z,58.18
2016-07-11T10:38:23.453Z,59.25
2016-07-11T10:39:23.409Z,58.28
2016-07-11T10:40:23.308Z,58.18
2016-07-11T10:41:23.312Z,58.47
2016-07-11T10:42:24.012Z,57.03
2016-07-11T10:43:23.875Z,58.28
2016-07-11T10:44:23.851Z,58.31
2016-07-11T10:45:23.341Z,59.25
2016-07-11T10:46:23.308Z,59.44
2016-07-11T10:47:23.311Z,57.89
2016-07-11T10:48:23.329Z,58.02
2016-07-11T10:49:23.317Z,59.18
2016-07-11T10:50:23.309Z,59.18
2016-07-11T10:51:23.342Z,58.4
2016-07-11T10:52:23.360Z,58.18
2016-07-11T10:53:23.558Z,58.7
2016-07-11T10:54:23.339Z,58.95
2016-07-11T10:55:23.323Z,58.86
2016-07-11T10:56:23.424Z,58.67
2016-07-11T10:57:23.330Z,58.76
2016-07-11T10:58:23.339Z,59.8
2016-07-11T10:59:23.330Z,59.12
2016-07-11T11:00:23.644Z,59.31
2016-07-11T11:01:23.357Z,60.31
2016-07-11T11:02:23.421Z,59.02
2016-07-11T11:03:23.340Z,57.87
2016-07-11T11:04:23.616Z,58.76
2016-07-11T11:05:23.334Z,57.31
2016-07-11T11:06:23.342Z,57.6
2016-07-11T11:07:23.438Z,57.6
2016-07-11T11:08:24.052Z,57.79
2016-07-11T11:09:23.335Z,57.21
2016-07-11T11:10:23.382Z,57.54
2016-07-11T11:11:23.396Z,58.5
2016-07-11T11:12:23.341Z,58.31
2016-07-11T11:13:23.326Z,59.44
2016-07-11T11:14:23.347Z,59.25
2016-07-11T11:15:23.326Z,58.86
2016-07-11T11:16:23.346Z,59.83
2016-07-11T11:17:23.339Z,60.11
2016-07-11T11:18:23.339Z,59.15
2016-07-11T11:19:23.426Z,59.18
2016-07-11T11:20:23.350Z,59.15
2016-07-11T11:21:23.452Z,58.98
2016-07-11T11:22:23.336Z,59.34
2016-07-11T11:23:23.339Z,58.8
2016-07-11T11:24:23.374Z,57.82
2016-07-11T11:25:23.367Z,58.82
2016-07-11T11:26:23.368Z,58.34
2016-07-11T11:27:23.598Z,56.4
2016-07-11T11:28:23.424Z,55.43
2016-07-11T11:29:23.367Z,54.69
2016-07-11T11:30:23.340Z,55.94
2016-07-11T11:31:23.358Z,55.68
2016-07-11T11:32:23.405Z,55
2016-07-11T11:33:23.366Z,54.84
2016-07-11T11:34:23.358Z,55.71
2016-07-11T11:35:23.487Z,53.39
2016-07-11T11:36:23.726Z,52.54
2016-07-11T11:37:23.649Z,51.47
2016-07-11T11:38:23.386Z,52.83
2016-07-11T11:39:23.376Z,52.93
2016-07-11T11:40:23.487Z,52.73
2016-07-11T11:41:23.386Z,52.73
2016-07-11T11:42:23.369Z,52.44
2016-07-11T11:43:23.454Z,51.96
2016-07-11T11:44:23.396Z,51.86
2016-07-11T11:45:23.372Z,51.28
2016-07-11T11:46:23.656Z,53.41
2016-07-11T11:47:23.480Z,51.18
2016-07-11T11:48:23.368Z,50.41
2016-07-11T11:49:23.405Z,51.09
2016-07-11T11:50:23.355Z,51.11
2016-07-11T11:51:23.370Z,50.89
2016-07-11T11:52:23.612Z,50.99
2016-07-11T11:53:23.387Z,50.6
2016-07-11T11:54:23.400Z,50.99
2016-07-11T11:55:23.385Z,50.7
2016-07-11T11:56:23.391Z,51.45
2016-07-11T11:57:23.368Z,52.25
2016-07-11T12:00:02.902Z,51.79
2016-07-11T12:00:36.918Z,52.34
2016-07-11T12:01:36.836Z,50.99
2016-07-11T12:02:36.868Z,51.18
2016-07-11T12:03:36.875Z,51.74
2016-07-11T12:04:36.840Z,52.58
2016-07-11T12:05:36.851Z,51.64
2016-07-11T12:06:36.867Z,52.12
2016-07-11T12:07:36.864Z,52.25
2016-07-11T12:08:36.858Z,51.67
2016-07-11T12:09:36.855Z,50.67
2016-07-11T12:10:36.871Z,51.06
2016-07-11T12:11:36.883Z,51.06
2016-07-11T12:12:36.889Z,50.96
2016-07-11T12:13:36.896Z,51.09
2016-07-11T12:14:36.893Z,51.74
2016-07-11T12:15:36.854Z,52.9
2016-07-11T12:16:36.872Z,53.87
2016-07-11T12:17:36.869Z,52.51
2016-07-11T12:18:36.874Z,53.19
2016-07-11T12:19:36.930Z,53.07
2016-07-11T12:20:36.866Z,53.58
2016-07-11T12:21:36.886Z,53.67
2016-07-11T12:22:37.390Z,52.29
2016-07-11T12:23:36.870Z,52.1
2016-07-11T12:24:36.869Z,52.2
2016-07-11T12:25:36.880Z,53.07
2016-07-11T12:26:36.946Z,52.49
2016-07-11T12:27:36.894Z,53.26
2016-07-11T12:28:36.903Z,53.45
2016-07-11T12:29:36.949Z,53.07
2016-07-11T12:30:36.884Z,54.23
2016-07-11T12:31:36.896Z,55.2
2016-07-11T12:32:36.902Z,54.13
2016-07-11T12:33:36.928Z,53.77
2016-07-11T12:34:36.901Z,53.17
2016-07-11T12:35:36.885Z,53.94
2016-07-11T12:36:36.910Z,53.19
2016-07-11T12:37:36.951Z,53.26
2016-07-11T12:38:36.896Z,52.49
2016-07-11T12:39:37.020Z,52.87
2016-07-11T12:40:36.896Z,53.65
2016-07-11T12:41:36.903Z,54.23
2016-07-11T12:42:36.902Z,55
2016-07-11T12:43:36.899Z,54.03
2016-07-11T12:44:37.048Z,54.23
2016-07-11T12:45:36.901Z,53.09
2016-07-11T12:46:36.915Z,52.9
2016-07-11T12:47:36.896Z,55.22
2016-07-11T12:48:36.904Z,54.55
2016-07-11T12:49:36.897Z,53.09
2016-07-11T12:50:36.906Z,53
2016-07-11T12:51:37.081Z,52.32
2016-07-11T12:52:36.917Z,54.06
2016-07-11T12:53:36.892Z,53.85
2016-07-11T12:54:37.039Z,53
2016-07-11T12:55:36.940Z,52.32
2016-07-11T12:56:36.958Z,51.74
2016-07-11T12:57:37.634Z,51.06
2016-07-11T12:58:37.983Z,51.64
2016-07-11T12:59:36.934Z,50.89
2016-07-11T13:00:36.907Z,50.96
2016-07-11T13:01:36.913Z,50.7